AirNav   Everest Fuels
 
 483 users online  

90PN Miners Medical Center Heliport
Hastings, Pennsylvania, USA

GOING TO HASTINGS?


FAA INFORMATION EFFECTIVE 07 NOVEMBER 2019

Location

FAA Identifier: 90PN
Lat/Long: 40-39-30.0000N 078-42-22.0000W
40-39.500000N 078-42.366667W
40.6583333,-78.7061111
(estimated)
Elevation: 1825 ft. / 556 m (estimated)
From city: 1 mile SE of HASTINGS, PA
Time zone: UTC -5 (UTC -4 during Daylight Saving Time)
Zip code: 16646

Heliport Operations

Heliport use: Private use. Permission required prior to landing
Activation date: 03/2012
Control tower: no
ARTCC: CLEVELAND CENTER
FSS: ALTOONA FLIGHT SERVICE STATION
Attendance: UNATNDD
Wind indicator: yes
Segmented circle: no

Heliport Communications

WX AWOS-3 at IDI (18 nm W): 126.625 (724-463-8551)

Nearby radio navigation aids

VOR radial/distance  VOR name  Freq  Var
RECr025/7.0REVLOC VOR/DME110.6009W
JSTr022/21.3JOHNSTOWN VOR/DME113.0006W
PSBr254/35.9PHILIPSBURG VORTAC115.5010W

 
NDB name  Hdg/Dist  Freq  Var  ID
STOYSTOWN026/35.720910WSYS ... -.-- ...

Heliport Services

Runway Information

Helipad H1

Dimensions: 60 x 60 ft. / 18 x 18 m
Surface: asphalt
Latitude: 40-39.500000N
Longitude: 078-42.366667W
Elevation: 1825.0 ft.
Traffic pattern: leftleft

Heliport Ownership and Management from official FAA records

Ownership: Privately-owned
Owner: MINERS MEDICAL CENTER
290 HAIDA AVENUE
HASTINGS, PA 16646
Phone 814-247-3100
Manager: JAMES HOMERSKI
290 HAIDA AVENUE
HASTINGS, PA 16646
Phone 814-247-3100

Additional Remarks

FOR CD CTC JOHNSTOWN APCH AT 814-532-5960, WHEN APCH CLSD CTC CLEVELAND ARTCC AT 440-774-0234.

Instrument Procedures

There are no published instrument procedures at 90PN.

Some nearby airports with instrument procedures:

9G8 - Ebensburg Airport (12 nm S)
KIDI - Indiana County Airport (Jimmy Stewart Field) (18 nm W)
N35 - Punxsutawney Municipal Airport (21 nm NW)
KJST - John Murtha Johnstown-Cambria County Airport (21 nm S)
KFIG - Clearfield-Lawrence Airport (27 nm NE)
 
Loc | Ops | Rwys | IFR | FBO | Links
Com | Nav | Svcs | Stats | Notes
Aerial photo
No photo
 
Airport distance calculator
Flying to Miners Medical Center Heliport? Find the distance to fly.

From to 90PN

Sunrise and sunset
Times for 19-Nov-2019
 Local
(UTC-5)
 Zulu
(UTC)
Morning civil twilight06:3811:38
Sunrise07:0712:07
Sunset16:5321:53
Evening civil twilight17:2322:23

Current date and time
Zulu (UTC)  19-Nov-2019 07:28:51
Local (UTC-5)  19-Nov-2019 02:28:51
 
METAR
KIDI 
17nm W 
190715Z AUTO 00000KT 10SM CLR 00/00 A2975 RMK A01
KJST 
21nm S 
190654Z AUTO 26005KT 10SM CLR 01/M02 A2969 RMK AO2 SLP065 T00111022
KFIG 
27nm NE 
190654Z AUTO 00000KT 8SM OVC004 01/M01 A2971 RMK AO2 SLP071 T00111006
KAOO 
28nm SE 
190718Z AUTO 00000KT 4SM BR CLR 01/M01 A2971 RMK AO2 I1001 T00061006 $
KDUJ 
32nm N 
190715Z AUTO 1/4SM FZFG VV003 M02/M04 A2969 RMK AO2 I1001 T10221039 $
TAF
KJST 
21nm S 
190558Z 1906/2006 22005KT P6SM SKC FM191300 26006KT P6SM BKN025 FM192300 30004KT P6SM VCSH OVC015
NOTAMs
Click for the latest NOTAMs
NOTAMs are issued by the DoD/FAA and will open in a separate window not controlled by AirNav.

 

 
 

Would you like to see your business listed on this page?

 If your business provides an interesting product or service to pilots, flight crews, aircraft, or users of the Miners Medical Center Heliport, you should consider listing it here.  To start the listing process, click on the button below
 
Add a business
 

Other Pages about Miners Medical Center Heliport

Update a link
 
Copyright © AirNav, LLC. All rights reserved. Privacy Policy  Contact